London Corbin Airport Magee Field
KLOZ : rendu visible

Aérodrome :











RETROUVEZ-NOUS SUR...

 
LOGIN :

S'inscrire | Disclaimer

   EN    FR    IT 

 









Légende :    VFR   VFR Marginal   IFR   IFR Intensif   IFR Très Intensif
Visi : 
Plafond : 
>= 8 km
>= 3000ft
5 à 8 km
1000 à 3000 ft
1500m à 5 km
500 à 1000 ft
800 à 1500m
200 à 500 ft
< 800m
< 200 ft
Symboles :   Orages  Brouillard  Fortes neiges  Fortes précipitations  Vent > 20 kt






- Altitude de l'aérodrome : 1212 ft


KLOZ - London Corbin Magee Field

DERNIER METAR :
  • 010453Z AUTO 30005KT 10SM OVC019 05/03 A2988 RMK AO2 RAB0356E41 SLP120 P0001 T00500033 401170050

METARs EXPIRÉS :
  • 010420Z AUTO 31006KT 9SM -RA SCT010 OVC015 05/04 A2988 RMK AO2 RAB0356 P0001 T00500039
  • 010353Z AUTO 30006KT 9SM BKN009 OVC016 05/04 A2988 RMK AO2 CIG 006V011 SLP120 T00500039
  • 010309Z AUTO 33005KT 10SM FEW009 BKN023 OVC028 05/04 A2988 RMK AO2 T00500039
  • 010253Z AUTO 32006KT 10SM FEW012 BKN017 OVC028 05/04 A2988 RMK AO2 RAE53 SLP120 P0000 60001 T00500039 53006
  • 010229Z AUTO 33007KT 10SM -RA FEW009 OVC015 05/04 A2988 RMK AO2 P0000 T00500039

TAF KLOZ
Valide du 01 à 04h jusqu'au 02 à 00h UTC


010359Z 0104/0124 VRB04KT P6SM OVC010
FM012200 VRB04KT P6SM BKN035



MET'MAP, la Météo Aéronautique d'un coup d'oeil ! - Copyright ORBIFLY Décembre 2007 - Disclaimer

ORBIFLY MET'MAP TEAM :

Programmation & Développement : Alexandra Zaïnal
Sur une idée originale de : Baudouin d'Aumeries
Assistance à la programmation : Marc-Olivier Méhu
Soutien technique & logistique : Manuel Goepfert

Contact : metmap@orbifly.com




SOURCES & CREDITS :

   NOAA       Earth
Advisory